sensor_id;sensor_type;location;lat;lon;timestamp;P1;durP1;ratioP1;P2;durP2;ratioP2
6053;SDS011;3055;50.886;14.814;2022-10-31T00:01:23;23.80;;;15.73;;
6053;SDS011;3055;50.886;14.814;2022-10-31T00:03:52;21.33;;;15.20;;
6053;SDS011;3055;50.886;14.814;2022-10-31T00:06:19;19.10;;;13.83;;
6053;SDS011;3055;50.886;14.814;2022-10-31T00:08:46;19.13;;;14.87;;
6053;SDS011;3055;50.886;14.814;2022-10-31T00:11:14;22.77;;;14.77;;
6053;SDS011;3055;50.886;14.814;2022-10-31T00:13:40;21.17;;;14.63;;
6053;SDS011;3055;50.886;14.814;2022-10-31T00:16:14;17.97;;;15.20;;
6053;SDS011;3055;50.886;14.814;2022-10-31T00:18:41;19.23;;;15.53;;
6053;SDS011;3055;50.886;14.814;2022-10-31T00:21:08;23.83;;;16.13;;
6053;SDS011;3055;50.886;14.814;2022-10-31T00:23:35;20.10;;;15.87;;
6053;SDS011;3055;50.886;14.814;2022-10-31T00:26:02;21.93;;;16.00;;
6053;SDS011;3055;50.886;14.814;2022-10-31T00:28:30;20.17;;;16.13;;
6053;SDS011;3055;50.886;14.814;2022-10-31T00:30:58;26.20;;;16.30;;
6053;SDS011;3055;50.886;14.814;2022-10-31T00:33:27;19.27;;;15.13;;
6053;SDS011;3055;50.886;14.814;2022-10-31T00:35:57;18.73;;;15.77;;
6053;SDS011;3055;50.886;14.814;2022-10-31T00:38:24;21.43;;;15.23;;
6053;SDS011;3055;50.886;14.814;2022-10-31T00:40:51;19.70;;;15.10;;
6053;SDS011;3055;50.886;14.814;2022-10-31T00:43:18;20.47;;;16.67;;
6053;SDS011;3055;50.886;14.814;2022-10-31T00:45:45;20.40;;;15.97;;
6053;SDS011;3055;50.886;14.814;2022-10-31T00:48:12;22.87;;;16.03;;
6053;SDS011;3055;50.886;14.814;2022-10-31T00:50:40;25.13;;;16.43;;
6053;SDS011;3055;50.886;14.814;2022-10-31T00:53:08;21.43;;;15.83;;
6053;SDS011;3055;50.886;14.814;2022-10-31T00:55:35;19.43;;;16.23;;
6053;SDS011;3055;50.886;14.814;2022-10-31T00:58:02;20.97;;;15.73;;
6053;SDS011;3055;50.886;14.814;2022-10-31T01:00:29;21.67;;;16.33;;
6053;SDS011;3055;50.886;14.814;2022-10-31T01:02:56;22.10;;;17.33;;
6053;SDS011;3055;50.886;14.814;2022-10-31T01:05:23;20.50;;;17.07;;
6053;SDS011;3055;50.886;14.814;2022-10-31T01:07:51;22.50;;;16.97;;
6053;SDS011;3055;50.886;14.814;2022-10-31T01:10:18;26.13;;;17.93;;
6053;SDS011;3055;50.886;14.814;2022-10-31T01:12:46;23.03;;;17.43;;
6053;SDS011;3055;50.886;14.814;2022-10-31T01:15:14;17.47;;;15.60;;
6053;SDS011;3055;50.886;14.814;2022-10-31T01:17:43;24.63;;;17.67;;
6053;SDS011;3055;50.886;14.814;2022-10-31T01:20:10;24.00;;;17.20;;
6053;SDS011;3055;50.886;14.814;2022-10-31T01:22:38;24.63;;;17.27;;
6053;SDS011;3055;50.886;14.814;2022-10-31T01:25:08;24.43;;;17.33;;
6053;SDS011;3055;50.886;14.814;2022-10-31T01:27:38;21.80;;;16.43;;
6053;SDS011;3055;50.886;14.814;2022-10-31T01:30:05;21.97;;;16.27;;
6053;SDS011;3055;50.886;14.814;2022-10-31T01:32:32;23.13;;;17.10;;
6053;SDS011;3055;50.886;14.814;2022-10-31T01:34:59;21.07;;;16.13;;
6053;SDS011;3055;50.886;14.814;2022-10-31T01:37:26;22.07;;;16.10;;
6053;SDS011;3055;50.886;14.814;2022-10-31T01:39:53;21.67;;;15.57;;
6053;SDS011;3055;50.886;14.814;2022-10-31T01:42:22;20.60;;;16.30;;
6053;SDS011;3055;50.886;14.814;2022-10-31T01:44:53;21.53;;;15.57;;
6053;SDS011;3055;50.886;14.814;2022-10-31T01:47:26;19.77;;;14.73;;
6053;SDS011;3055;50.886;14.814;2022-10-31T01:49:59;19.87;;;15.33;;
6053;SDS011;3055;50.886;14.814;2022-10-31T01:52:31;21.30;;;15.40;;
6053;SDS011;3055;50.886;14.814;2022-10-31T01:55:03;19.33;;;15.47;;
6053;SDS011;3055;50.886;14.814;2022-10-31T01:57:34;25.63;;;16.10;;
6053;SDS011;3055;50.886;14.814;2022-10-31T02:00:06;23.80;;;16.27;;
6053;SDS011;3055;50.886;14.814;2022-10-31T02:02:35;21.50;;;15.03;;
6053;SDS011;3055;50.886;14.814;2022-10-31T02:05:04;23.57;;;15.83;;
6053;SDS011;3055;50.886;14.814;2022-10-31T02:07:35;23.30;;;15.77;;
6053;SDS011;3055;50.886;14.814;2022-10-31T02:10:05;23.30;;;15.97;;
6053;SDS011;3055;50.886;14.814;2022-10-31T02:12:34;21.83;;;16.63;;
6053;SDS011;3055;50.886;14.814;2022-10-31T02:15:03;25.57;;;16.63;;
6053;SDS011;3055;50.886;14.814;2022-10-31T02:17:31;21.37;;;15.87;;
6053;SDS011;3055;50.886;14.814;2022-10-31T02:20:00;26.57;;;17.53;;
6053;SDS011;3055;50.886;14.814;2022-10-31T02:22:39;23.13;;;18.70;;
6053;SDS011;3055;50.886;14.814;2022-10-31T02:25:20;27.43;;;17.30;;
6053;SDS011;3055;50.886;14.814;2022-10-31T02:28:09;21.60;;;17.37;;
6053;SDS011;3055;50.886;14.814;2022-10-31T02:31:01;21.17;;;16.43;;
6053;SDS011;3055;50.886;14.814;2022-10-31T02:33:40;20.80;;;15.70;;
6053;SDS011;3055;50.886;14.814;2022-10-31T02:36:10;20.53;;;15.47;;
6053;SDS011;3055;50.886;14.814;2022-10-31T02:38:45;22.27;;;15.30;;
6053;SDS011;3055;50.886;14.814;2022-10-31T02:41:18;21.47;;;15.97;;
6053;SDS011;3055;50.886;14.814;2022-10-31T02:43:54;22.27;;;15.17;;
6053;SDS011;3055;50.886;14.814;2022-10-31T02:46:32;18.90;;;14.97;;
6053;SDS011;3055;50.886;14.814;2022-10-31T02:49:05;20.37;;;14.83;;
6053;SDS011;3055;50.886;14.814;2022-10-31T02:51:38;19.27;;;15.17;;
6053;SDS011;3055;50.886;14.814;2022-10-31T02:54:14;21.33;;;15.23;;
6053;SDS011;3055;50.886;14.814;2022-10-31T02:56:43;23.03;;;15.40;;
6053;SDS011;3055;50.886;14.814;2022-10-31T02:59:10;19.67;;;14.43;;
6053;SDS011;3055;50.886;14.814;2022-10-31T03:01:55;15.97;;;14.10;;
6053;SDS011;3055;50.886;14.814;2022-10-31T03:04:33;21.77;;;14.77;;
6053;SDS011;3055;50.886;14.814;2022-10-31T03:07:23;22.03;;;15.10;;
6053;SDS011;3055;50.886;14.814;2022-10-31T03:10:00;23.63;;;17.03;;
6053;SDS011;3055;50.886;14.814;2022-10-31T03:12:35;17.10;;;15.27;;
6053;SDS011;3055;50.886;14.814;2022-10-31T03:15:07;23.03;;;16.77;;
6053;SDS011;3055;50.886;14.814;2022-10-31T03:17:46;19.87;;;14.80;;
6053;SDS011;3055;50.886;14.814;2022-10-31T03:20:19;20.87;;;16.13;;
6053;SDS011;3055;50.886;14.814;2022-10-31T03:22:50;20.43;;;15.03;;
6053;SDS011;3055;50.886;14.814;2022-10-31T03:25:18;21.53;;;16.33;;
6053;SDS011;3055;50.886;14.814;2022-10-31T03:27:45;18.87;;;15.03;;
6053;SDS011;3055;50.886;14.814;2022-10-31T03:30:13;21.10;;;15.43;;
6053;SDS011;3055;50.886;14.814;2022-10-31T03:32:44;23.73;;;16.83;;
6053;SDS011;3055;50.886;14.814;2022-10-31T03:35:15;21.57;;;16.10;;
6053;SDS011;3055;50.886;14.814;2022-10-31T03:37:45;20.60;;;15.23;;
6053;SDS011;3055;50.886;14.814;2022-10-31T03:40:15;19.33;;;14.07;;
6053;SDS011;3055;50.886;14.814;2022-10-31T03:42:46;19.97;;;15.23;;
6053;SDS011;3055;50.886;14.814;2022-10-31T03:45:20;20.80;;;16.20;;
6053;SDS011;3055;50.886;14.814;2022-10-31T03:47:51;20.67;;;15.37;;
6053;SDS011;3055;50.886;14.814;2022-10-31T03:50:19;18.63;;;14.70;;
6053;SDS011;3055;50.886;14.814;2022-10-31T03:52:48;20.33;;;13.73;;
6053;SDS011;3055;50.886;14.814;2022-10-31T03:55:22;18.87;;;14.87;;
6053;SDS011;3055;50.886;14.814;2022-10-31T03:57:55;19.90;;;15.50;;
6053;SDS011;3055;50.886;14.814;2022-10-31T04:00:25;18.77;;;14.47;;
6053;SDS011;3055;50.886;14.814;2022-10-31T04:02:55;21.40;;;15.60;;
6053;SDS011;3055;50.886;14.814;2022-10-31T04:05:26;21.97;;;15.13;;
6053;SDS011;3055;50.886;14.814;2022-10-31T04:07:54;19.00;;;15.73;;
6053;SDS011;3055;50.886;14.814;2022-10-31T04:10:23;19.90;;;14.47;;
6053;SDS011;3055;50.886;14.814;2022-10-31T04:12:54;26.07;;;16.03;;
6053;SDS011;3055;50.886;14.814;2022-10-31T04:15:24;19.23;;;15.13;;
6053;SDS011;3055;50.886;14.814;2022-10-31T04:17:55;21.73;;;16.00;;
6053;SDS011;3055;50.886;14.814;2022-10-31T04:20:30;19.70;;;14.90;;
6053;SDS011;3055;50.886;14.814;2022-10-31T04:22:58;19.73;;;14.77;;
6053;SDS011;3055;50.886;14.814;2022-10-31T04:25:26;21.57;;;15.53;;
6053;SDS011;3055;50.886;14.814;2022-10-31T04:27:52;21.47;;;15.33;;
6053;SDS011;3055;50.886;14.814;2022-10-31T04:30:19;21.37;;;15.03;;
6053;SDS011;3055;50.886;14.814;2022-10-31T04:32:46;19.43;;;15.23;;
6053;SDS011;3055;50.886;14.814;2022-10-31T04:35:14;21.50;;;16.10;;
6053;SDS011;3055;50.886;14.814;2022-10-31T04:37:42;20.43;;;15.57;;
6053;SDS011;3055;50.886;14.814;2022-10-31T04:40:09;22.43;;;14.70;;
6053;SDS011;3055;50.886;14.814;2022-10-31T04:42:37;19.03;;;15.70;;
6053;SDS011;3055;50.886;14.814;2022-10-31T04:45:04;22.97;;;15.90;;
6053;SDS011;3055;50.886;14.814;2022-10-31T04:47:31;21.30;;;15.47;;
6053;SDS011;3055;50.886;14.814;2022-10-31T04:49:58;21.13;;;14.13;;
6053;SDS011;3055;50.886;14.814;2022-10-31T04:52:27;18.83;;;15.73;;
6053;SDS011;3055;50.886;14.814;2022-10-31T04:54:54;18.87;;;14.63;;
6053;SDS011;3055;50.886;14.814;2022-10-31T04:57:21;20.03;;;15.60;;
6053;SDS011;3055;50.886;14.814;2022-10-31T04:59:47;20.40;;;14.53;;
6053;SDS011;3055;50.886;14.814;2022-10-31T05:02:14;15.93;;;13.57;;
6053;SDS011;3055;50.886;14.814;2022-10-31T05:04:41;23.37;;;13.53;;
6053;SDS011;3055;50.886;14.814;2022-10-31T05:07:08;24.00;;;16.53;;
6053;SDS011;3055;50.886;14.814;2022-10-31T05:09:36;26.50;;;15.20;;
6053;SDS011;3055;50.886;14.814;2022-10-31T05:12:03;21.77;;;15.70;;
6053;SDS011;3055;50.886;14.814;2022-10-31T05:14:30;19.23;;;15.37;;
6053;SDS011;3055;50.886;14.814;2022-10-31T05:16:57;18.27;;;14.83;;
6053;SDS011;3055;50.886;14.814;2022-10-31T05:19:24;19.53;;;14.73;;
6053;SDS011;3055;50.886;14.814;2022-10-31T05:21:51;18.97;;;14.23;;
6053;SDS011;3055;50.886;14.814;2022-10-31T05:24:17;18.73;;;14.07;;
6053;SDS011;3055;50.886;14.814;2022-10-31T05:26:48;20.47;;;14.73;;
6053;SDS011;3055;50.886;14.814;2022-10-31T05:29:15;19.67;;;14.33;;
6053;SDS011;3055;50.886;14.814;2022-10-31T05:31:42;19.20;;;15.40;;
6053;SDS011;3055;50.886;14.814;2022-10-31T05:34:09;18.27;;;13.23;;
6053;SDS011;3055;50.886;14.814;2022-10-31T05:36:36;17.60;;;13.30;;
6053;SDS011;3055;50.886;14.814;2022-10-31T05:39:03;20.43;;;13.97;;
6053;SDS011;3055;50.886;14.814;2022-10-31T05:41:30;18.37;;;13.83;;
6053;SDS011;3055;50.886;14.814;2022-10-31T05:43:58;16.00;;;13.60;;
6053;SDS011;3055;50.886;14.814;2022-10-31T05:46:25;22.07;;;13.50;;
6053;SDS011;3055;50.886;14.814;2022-10-31T05:48:52;19.10;;;14.50;;
6053;SDS011;3055;50.886;14.814;2022-10-31T05:51:19;16.33;;;13.30;;
6053;SDS011;3055;50.886;14.814;2022-10-31T05:53:46;16.93;;;13.83;;
6053;SDS011;3055;50.886;14.814;2022-10-31T05:56:13;19.70;;;13.10;;
6053;SDS011;3055;50.886;14.814;2022-10-31T05:58:40;14.00;;;12.40;;
6053;SDS011;3055;50.886;14.814;2022-10-31T06:01:08;19.13;;;14.03;;
6053;SDS011;3055;50.886;14.814;2022-10-31T06:03:35;19.07;;;13.53;;
6053;SDS011;3055;50.886;14.814;2022-10-31T06:06:02;15.43;;;12.67;;
6053;SDS011;3055;50.886;14.814;2022-10-31T06:08:29;16.67;;;13.27;;
6053;SDS011;3055;50.886;14.814;2022-10-31T06:10:56;16.73;;;12.87;;
6053;SDS011;3055;50.886;14.814;2022-10-31T06:13:22;19.73;;;13.37;;
6053;SDS011;3055;50.886;14.814;2022-10-31T06:15:49;17.73;;;13.03;;
6053;SDS011;3055;50.886;14.814;2022-10-31T06:18:18;19.93;;;12.77;;
6053;SDS011;3055;50.886;14.814;2022-10-31T06:20:45;24.03;;;17.33;;
6053;SDS011;3055;50.886;14.814;2022-10-31T06:23:11;22.97;;;16.70;;
6053;SDS011;3055;50.886;14.814;2022-10-31T06:25:38;24.93;;;18.13;;
6053;SDS011;3055;50.886;14.814;2022-10-31T06:28:05;26.37;;;19.30;;
6053;SDS011;3055;50.886;14.814;2022-10-31T06:30:32;24.77;;;18.77;;
6053;SDS011;3055;50.886;14.814;2022-10-31T06:33:02;36.50;;;25.23;;
6053;SDS011;3055;50.886;14.814;2022-10-31T06:35:31;36.57;;;25.23;;
6053;SDS011;3055;50.886;14.814;2022-10-31T06:37:58;35.43;;;25.00;;
6053;SDS011;3055;50.886;14.814;2022-10-31T06:40:25;35.70;;;22.40;;
6053;SDS011;3055;50.886;14.814;2022-10-31T06:42:58;28.63;;;20.50;;
6053;SDS011;3055;50.886;14.814;2022-10-31T06:45:25;22.23;;;16.83;;
6053;SDS011;3055;50.886;14.814;2022-10-31T06:47:52;25.77;;;17.93;;
6053;SDS011;3055;50.886;14.814;2022-10-31T06:50:19;23.70;;;17.13;;
6053;SDS011;3055;50.886;14.814;2022-10-31T06:52:52;25.03;;;18.10;;
6053;SDS011;3055;50.886;14.814;2022-10-31T06:55:19;22.67;;;15.50;;
6053;SDS011;3055;50.886;14.814;2022-10-31T06:57:50;23.63;;;17.17;;
6053;SDS011;3055;50.886;14.814;2022-10-31T07:00:17;22.83;;;17.27;;
6053;SDS011;3055;50.886;14.814;2022-10-31T07:02:52;23.03;;;18.00;;
6053;SDS011;3055;50.886;14.814;2022-10-31T07:05:19;18.67;;;15.67;;
6053;SDS011;3055;50.886;14.814;2022-10-31T07:07:46;22.67;;;16.53;;
6053;SDS011;3055;50.886;14.814;2022-10-31T07:10:15;21.57;;;16.77;;
6053;SDS011;3055;50.886;14.814;2022-10-31T07:12:41;26.67;;;18.27;;
6053;SDS011;3055;50.886;14.814;2022-10-31T07:15:08;23.40;;;17.93;;
6053;SDS011;3055;50.886;14.814;2022-10-31T07:17:35;25.97;;;17.27;;
6053;SDS011;3055;50.886;14.814;2022-10-31T07:20:03;22.37;;;15.13;;
6053;SDS011;3055;50.886;14.814;2022-10-31T07:22:33;21.77;;;15.27;;
6053;SDS011;3055;50.886;14.814;2022-10-31T07:25:01;23.87;;;15.97;;
6053;SDS011;3055;50.886;14.814;2022-10-31T07:27:34;17.90;;;13.43;;
6053;SDS011;3055;50.886;14.814;2022-10-31T07:30:01;22.93;;;13.87;;
6053;SDS011;3055;50.886;14.814;2022-10-31T07:32:36;19.87;;;15.03;;
6053;SDS011;3055;50.886;14.814;2022-10-31T07:35:04;20.90;;;13.90;;
6053;SDS011;3055;50.886;14.814;2022-10-31T07:37:31;18.83;;;13.30;;
6053;SDS011;3055;50.886;14.814;2022-10-31T07:39:58;18.47;;;12.97;;
6053;SDS011;3055;50.886;14.814;2022-10-31T07:42:25;18.47;;;13.53;;
6053;SDS011;3055;50.886;14.814;2022-10-31T07:44:53;16.97;;;12.70;;
6053;SDS011;3055;50.886;14.814;2022-10-31T07:47:20;17.10;;;13.53;;
6053;SDS011;3055;50.886;14.814;2022-10-31T07:49:47;18.40;;;12.97;;
6053;SDS011;3055;50.886;14.814;2022-10-31T07:52:14;21.47;;;13.10;;
6053;SDS011;3055;50.886;14.814;2022-10-31T07:54:41;15.97;;;12.50;;
6053;SDS011;3055;50.886;14.814;2022-10-31T07:57:07;16.13;;;12.03;;
6053;SDS011;3055;50.886;14.814;2022-10-31T07:59:34;16.27;;;11.23;;
6053;SDS011;3055;50.886;14.814;2022-10-31T08:02:03;16.83;;;10.80;;
6053;SDS011;3055;50.886;14.814;2022-10-31T08:04:29;14.23;;;10.80;;
6053;SDS011;3055;50.886;14.814;2022-10-31T08:06:56;16.07;;;10.90;;
6053;SDS011;3055;50.886;14.814;2022-10-31T08:09:24;11.87;;;10.40;;
6053;SDS011;3055;50.886;14.814;2022-10-31T08:11:50;13.37;;;10.67;;
6053;SDS011;3055;50.886;14.814;2022-10-31T08:14:18;14.33;;;10.27;;
6053;SDS011;3055;50.886;14.814;2022-10-31T08:16:45;15.53;;;10.17;;
6053;SDS011;3055;50.886;14.814;2022-10-31T08:19:14;12.97;;;10.17;;
6053;SDS011;3055;50.886;14.814;2022-10-31T08:21:41;15.63;;;10.50;;
6053;SDS011;3055;50.886;14.814;2022-10-31T08:24:07;14.03;;;10.17;;
6053;SDS011;3055;50.886;14.814;2022-10-31T08:26:34;16.43;;;10.60;;
6053;SDS011;3055;50.886;14.814;2022-10-31T08:29:01;12.37;;;10.13;;
6053;SDS011;3055;50.886;14.814;2022-10-31T08:31:29;15.60;;;11.13;;
6053;SDS011;3055;50.886;14.814;2022-10-31T08:33:56;15.23;;;10.67;;
6053;SDS011;3055;50.886;14.814;2022-10-31T08:36:24;14.20;;;10.47;;
6053;SDS011;3055;50.886;14.814;2022-10-31T08:38:51;13.83;;;9.73;;
6053;SDS011;3055;50.886;14.814;2022-10-31T08:41:18;12.33;;;9.97;;
6053;SDS011;3055;50.886;14.814;2022-10-31T08:43:46;13.70;;;10.27;;
6053;SDS011;3055;50.886;14.814;2022-10-31T08:46:13;13.83;;;10.60;;
6053;SDS011;3055;50.886;14.814;2022-10-31T08:48:40;13.50;;;10.73;;
6053;SDS011;3055;50.886;14.814;2022-10-31T08:51:08;12.93;;;9.67;;
6053;SDS011;3055;50.886;14.814;2022-10-31T08:53:37;14.20;;;9.47;;
6053;SDS011;3055;50.886;14.814;2022-10-31T08:56:04;14.03;;;9.87;;
6053;SDS011;3055;50.886;14.814;2022-10-31T08:58:31;15.13;;;9.93;;
6053;SDS011;3055;50.886;14.814;2022-10-31T09:00:58;12.90;;;9.30;;
6053;SDS011;3055;50.886;14.814;2022-10-31T09:03:27;12.37;;;9.20;;
6053;SDS011;3055;50.886;14.814;2022-10-31T09:05:56;16.37;;;9.70;;
6053;SDS011;3055;50.886;14.814;2022-10-31T09:08:24;12.37;;;8.90;;
6053;SDS011;3055;50.886;14.814;2022-10-31T09:10:55;12.20;;;9.53;;
6053;SDS011;3055;50.886;14.814;2022-10-31T09:13:22;13.13;;;8.67;;
6053;SDS011;3055;50.886;14.814;2022-10-31T09:15:49;12.70;;;9.30;;
6053;SDS011;3055;50.886;14.814;2022-10-31T09:18:18;17.77;;;13.17;;
6053;SDS011;3055;50.886;14.814;2022-10-31T09:20:46;17.67;;;14.67;;
6053;SDS011;3055;50.886;14.814;2022-10-31T09:23:15;19.80;;;14.23;;
6053;SDS011;3055;50.886;14.814;2022-10-31T09:25:43;17.83;;;13.67;;
6053;SDS011;3055;50.886;14.814;2022-10-31T09:28:13;15.67;;;13.83;;
6053;SDS011;3055;50.886;14.814;2022-10-31T09:30:40;20.37;;;13.90;;
6053;SDS011;3055;50.886;14.814;2022-10-31T09:33:09;13.20;;;9.93;;
6053;SDS011;3055;50.886;14.814;2022-10-31T09:35:38;11.67;;;8.17;;
6053;SDS011;3055;50.886;14.814;2022-10-31T09:38:06;13.43;;;8.30;;
6053;SDS011;3055;50.886;14.814;2022-10-31T09:40:36;14.63;;;10.57;;
6053;SDS011;3055;50.886;14.814;2022-10-31T09:43:07;12.67;;;9.63;;
6053;SDS011;3055;50.886;14.814;2022-10-31T09:45:43;20.67;;;11.93;;
6053;SDS011;3055;50.886;14.814;2022-10-31T09:48:22;17.10;;;11.77;;
6053;SDS011;3055;50.886;14.814;2022-10-31T09:50:58;23.63;;;13.37;;
6053;SDS011;3055;50.886;14.814;2022-10-31T09:53:29;14.33;;;9.87;;
6053;SDS011;3055;50.886;14.814;2022-10-31T09:56:00;15.13;;;9.20;;
6053;SDS011;3055;50.886;14.814;2022-10-31T09:58:32;13.57;;;9.20;;
6053;SDS011;3055;50.886;14.814;2022-10-31T10:01:05;14.97;;;11.43;;
6053;SDS011;3055;50.886;14.814;2022-10-31T10:03:41;19.53;;;10.30;;
6053;SDS011;3055;50.886;14.814;2022-10-31T10:06:13;18.37;;;10.90;;
6053;SDS011;3055;50.886;14.814;2022-10-31T10:08:44;21.20;;;12.50;;
6053;SDS011;3055;50.886;14.814;2022-10-31T10:11:19;16.43;;;12.20;;
6053;SDS011;3055;50.886;14.814;2022-10-31T10:14:08;14.07;;;10.73;;
6053;SDS011;3055;50.886;14.814;2022-10-31T10:16:55;14.63;;;10.27;;
6053;SDS011;3055;50.886;14.814;2022-10-31T10:19:40;12.33;;;8.47;;
6053;SDS011;3055;50.886;14.814;2022-10-31T10:22:17;11.27;;;8.67;;
6053;SDS011;3055;50.886;14.814;2022-10-31T10:24:55;12.67;;;8.03;;
6053;SDS011;3055;50.886;14.814;2022-10-31T10:27:32;10.87;;;7.07;;
6053;SDS011;3055;50.886;14.814;2022-10-31T10:30:12;11.67;;;7.17;;
6053;SDS011;3055;50.886;14.814;2022-10-31T10:32:42;11.07;;;6.70;;
6053;SDS011;3055;50.886;14.814;2022-10-31T10:35:14;10.33;;;6.27;;
6053;SDS011;3055;50.886;14.814;2022-10-31T10:37:47;12.63;;;6.03;;
6053;SDS011;3055;50.886;14.814;2022-10-31T10:40:17;13.63;;;7.00;;
6053;SDS011;3055;50.886;14.814;2022-10-31T10:42:50;10.50;;;6.33;;
6053;SDS011;3055;50.886;14.814;2022-10-31T10:45:43;10.77;;;6.80;;
6053;SDS011;3055;50.886;14.814;2022-10-31T10:48:35;8.40;;;5.73;;
6053;SDS011;3055;50.886;14.814;2022-10-31T10:51:10;10.67;;;6.90;;
6053;SDS011;3055;50.886;14.814;2022-10-31T10:53:49;9.20;;;6.53;;
6053;SDS011;3055;50.886;14.814;2022-10-31T10:56:30;11.07;;;6.10;;
6053;SDS011;3055;50.886;14.814;2022-10-31T10:59:06;8.70;;;6.53;;
6053;SDS011;3055;50.886;14.814;2022-10-31T11:01:37;10.97;;;5.90;;
6053;SDS011;3055;50.886;14.814;2022-10-31T11:04:08;10.33;;;6.40;;
6053;SDS011;3055;50.886;14.814;2022-10-31T11:06:56;6.70;;;5.37;;
6053;SDS011;3055;50.886;14.814;2022-10-31T11:09:26;8.97;;;5.90;;
6053;SDS011;3055;50.886;14.814;2022-10-31T11:11:54;11.83;;;6.67;;
6053;SDS011;3055;50.886;14.814;2022-10-31T11:14:22;9.10;;;6.07;;
6053;SDS011;3055;50.886;14.814;2022-10-31T11:16:51;12.50;;;6.43;;
6053;SDS011;3055;50.886;14.814;2022-10-31T11:19:21;9.70;;;6.70;;
6053;SDS011;3055;50.886;14.814;2022-10-31T11:21:50;10.07;;;6.97;;
6053;SDS011;3055;50.886;14.814;2022-10-31T11:24:18;8.40;;;5.80;;
6053;SDS011;3055;50.886;14.814;2022-10-31T11:26:46;12.53;;;6.50;;
6053;SDS011;3055;50.886;14.814;2022-10-31T11:29:15;10.73;;;6.50;;
6053;SDS011;3055;50.886;14.814;2022-10-31T11:31:45;9.07;;;5.93;;
6053;SDS011;3055;50.886;14.814;2022-10-31T11:34:16;12.07;;;6.37;;
6053;SDS011;3055;50.886;14.814;2022-10-31T11:36:55;12.03;;;5.70;;
6053;SDS011;3055;50.886;14.814;2022-10-31T11:39:27;11.37;;;6.13;;
6053;SDS011;3055;50.886;14.814;2022-10-31T11:41:54;11.80;;;5.97;;
6053;SDS011;3055;50.886;14.814;2022-10-31T11:44:27;8.27;;;5.83;;
6053;SDS011;3055;50.886;14.814;2022-10-31T11:46:57;15.03;;;6.53;;
6053;SDS011;3055;50.886;14.814;2022-10-31T11:49:29;14.67;;;7.57;;
6053;SDS011;3055;50.886;14.814;2022-10-31T11:51:59;13.07;;;7.67;;
6053;SDS011;3055;50.886;14.814;2022-10-31T11:54:29;13.17;;;7.57;;
6053;SDS011;3055;50.886;14.814;2022-10-31T11:56:59;13.53;;;7.50;;
6053;SDS011;3055;50.886;14.814;2022-10-31T11:59:27;14.43;;;8.37;;
6053;SDS011;3055;50.886;14.814;2022-10-31T12:01:56;14.10;;;7.60;;
6053;SDS011;3055;50.886;14.814;2022-10-31T12:04:29;11.20;;;6.93;;
6053;SDS011;3055;50.886;14.814;2022-10-31T12:07:02;10.00;;;6.77;;
6053;SDS011;3055;50.886;14.814;2022-10-31T12:09:30;10.57;;;6.90;;
6053;SDS011;3055;50.886;14.814;2022-10-31T12:12:10;9.53;;;5.60;;
6053;SDS011;3055;50.886;14.814;2022-10-31T12:15:04;10.97;;;5.33;;
6053;SDS011;3055;50.886;14.814;2022-10-31T12:17:43;9.40;;;4.80;;
6053;SDS011;3055;50.886;14.814;2022-10-31T12:20:18;13.63;;;6.17;;
6053;SDS011;3055;50.886;14.814;2022-10-31T12:22:52;14.60;;;5.50;;
6053;SDS011;3055;50.886;14.814;2022-10-31T12:25:34;9.70;;;5.37;;
6053;SDS011;3055;50.886;14.814;2022-10-31T12:31:21;7.03;;;5.00;;
6053;SDS011;3055;50.886;14.814;2022-10-31T12:34:00;14.87;;;4.57;;
6053;SDS011;3055;50.886;14.814;2022-10-31T12:36:45;12.33;;;5.20;;
6053;SDS011;3055;50.886;14.814;2022-10-31T12:39:28;11.07;;;5.00;;
6053;SDS011;3055;50.886;14.814;2022-10-31T12:42:04;11.83;;;4.40;;
6053;SDS011;3055;50.886;14.814;2022-10-31T12:47:45;11.03;;;4.60;;
6053;SDS011;3055;50.886;14.814;2022-10-31T12:50:24;6.97;;;3.87;;
6053;SDS011;3055;50.886;14.814;2022-10-31T12:53:02;8.63;;;4.03;;
6053;SDS011;3055;50.886;14.814;2022-10-31T12:55:47;9.80;;;4.57;;
6053;SDS011;3055;50.886;14.814;2022-10-31T12:58:22;9.97;;;4.30;;
6053;SDS011;3055;50.886;14.814;2022-10-31T13:00:54;7.43;;;4.63;;
6053;SDS011;3055;50.886;14.814;2022-10-31T13:03:28;10.27;;;4.70;;
6053;SDS011;3055;50.886;14.814;2022-10-31T13:06:02;10.97;;;5.17;;
6053;SDS011;3055;50.886;14.814;2022-10-31T13:08:36;9.27;;;4.17;;
6053;SDS011;3055;50.886;14.814;2022-10-31T13:11:08;10.27;;;4.60;;
6053;SDS011;3055;50.886;14.814;2022-10-31T13:13:40;8.33;;;4.30;;
6053;SDS011;3055;50.886;14.814;2022-10-31T13:16:11;10.07;;;4.43;;
6053;SDS011;3055;50.886;14.814;2022-10-31T13:18:43;7.93;;;4.30;;
6053;SDS011;3055;50.886;14.814;2022-10-31T13:21:23;10.83;;;4.30;;
6053;SDS011;3055;50.886;14.814;2022-10-31T13:23:53;14.97;;;7.03;;
6053;SDS011;3055;50.886;14.814;2022-10-31T13:26:27;8.50;;;4.13;;
6053;SDS011;3055;50.886;14.814;2022-10-31T13:29:16;11.17;;;4.40;;
6053;SDS011;3055;50.886;14.814;2022-10-31T13:31:46;7.47;;;4.77;;
6053;SDS011;3055;50.886;14.814;2022-10-31T13:34:19;8.73;;;4.40;;
6053;SDS011;3055;50.886;14.814;2022-10-31T13:36:52;8.10;;;3.90;;
6053;SDS011;3055;50.886;14.814;2022-10-31T13:39:30;8.30;;;4.17;;
6053;SDS011;3055;50.886;14.814;2022-10-31T13:42:10;6.77;;;4.07;;
6053;SDS011;3055;50.886;14.814;2022-10-31T13:44:41;7.10;;;3.90;;
6053;SDS011;3055;50.886;14.814;2022-10-31T13:47:21;8.83;;;4.37;;
6053;SDS011;3055;50.886;14.814;2022-10-31T13:49:50;8.50;;;4.00;;
6053;SDS011;3055;50.886;14.814;2022-10-31T13:52:22;7.40;;;4.93;;
6053;SDS011;3055;50.886;14.814;2022-10-31T13:54:52;8.10;;;4.03;;
6053;SDS011;3055;50.886;14.814;2022-10-31T13:57:30;9.83;;;4.30;;
6053;SDS011;3055;50.886;14.814;2022-10-31T13:59:59;7.27;;;4.30;;
6053;SDS011;3055;50.886;14.814;2022-10-31T14:02:29;7.40;;;3.87;;
6053;SDS011;3055;50.886;14.814;2022-10-31T14:04:58;9.20;;;4.07;;
6053;SDS011;3055;50.886;14.814;2022-10-31T14:07:27;9.57;;;4.03;;
6053;SDS011;3055;50.886;14.814;2022-10-31T14:09:58;6.93;;;4.33;;
6053;SDS011;3055;50.886;14.814;2022-10-31T14:12:29;7.37;;;3.60;;
6053;SDS011;3055;50.886;14.814;2022-10-31T14:15:00;6.87;;;4.37;;
6053;SDS011;3055;50.886;14.814;2022-10-31T14:17:36;10.37;;;4.07;;
6053;SDS011;3055;50.886;14.814;2022-10-31T14:23:12;5.23;;;3.80;;
6053;SDS011;3055;50.886;14.814;2022-10-31T14:26:18;8.57;;;4.27;;
6053;SDS011;3055;50.886;14.814;2022-10-31T14:28:56;9.03;;;4.13;;
6053;SDS011;3055;50.886;14.814;2022-10-31T14:31:27;9.83;;;4.17;;
6053;SDS011;3055;50.886;14.814;2022-10-31T14:34:04;8.83;;;4.00;;
6053;SDS011;3055;50.886;14.814;2022-10-31T14:36:46;6.17;;;4.17;;
6053;SDS011;3055;50.886;14.814;2022-10-31T14:39:31;7.43;;;3.47;;
6053;SDS011;3055;50.886;14.814;2022-10-31T14:42:09;7.20;;;3.60;;
6053;SDS011;3055;50.886;14.814;2022-10-31T14:44:57;7.93;;;3.63;;
6053;SDS011;3055;50.886;14.814;2022-10-31T14:47:43;8.93;;;3.23;;
6053;SDS011;3055;50.886;14.814;2022-10-31T14:50:20;8.13;;;3.73;;
6053;SDS011;3055;50.886;14.814;2022-10-31T14:52:51;5.50;;;3.53;;
6053;SDS011;3055;50.886;14.814;2022-10-31T14:55:21;7.93;;;3.93;;
6053;SDS011;3055;50.886;14.814;2022-10-31T14:57:50;8.27;;;3.87;;
6053;SDS011;3055;50.886;14.814;2022-10-31T15:00:21;11.27;;;3.97;;
6053;SDS011;3055;50.886;14.814;2022-10-31T15:02:53;8.63;;;4.27;;
6053;SDS011;3055;50.886;14.814;2022-10-31T15:05:30;4.53;;;3.37;;
6053;SDS011;3055;50.886;14.814;2022-10-31T15:08:00;9.73;;;4.10;;
6053;SDS011;3055;50.886;14.814;2022-10-31T15:10:27;8.60;;;4.43;;
6053;SDS011;3055;50.886;14.814;2022-10-31T15:13:08;4.47;;;3.63;;